Time;durP1;ratioP1;P1;durP2;ratioP2;P2;SDS_P1;SDS_P2;PMS_P1;PMS_P2;Temp;Humidity;BMP_temperature;BMP_pressure;BME280_temperature;BME280_humidity;BME280_pressure;Samples;Min_cycle;Max_cycle;Signal;HPM_P1;HPM_P2
2020/12/03 00:00:07;;;;;;;50.40;17.08;;;;;;;1.53;nan;96011.88;4975324;28;20234;-39
2020/12/03 00:02:35;;;;;;;52.53;19.35;;;;;;;1.57;nan;96013.47;4974313;28;20229;-39
2020/12/03 00:05:03;;;;;;;47.33;17.20;;;;;;;1.53;nan;96000.78;4974910;28;20233;-39
2020/12/03 00:07:30;;;;;;;51.53;20.15;;;;;;;1.55;nan;95999.84;4975564;28;20201;-39
2020/12/03 00:09:57;;;;;;;50.65;19.85;;;;;;;1.59;nan;95998.84;4975211;28;20229;-39
2020/12/03 00:12:23;;;;;;;55.25;19.70;;;;;;;1.54;nan;95998.19;4973477;28;20708;-39
2020/12/03 00:14:50;;;;;;;52.20;18.50;;;;;;;1.54;nan;95995.63;4976703;28;20932;-39
2020/12/03 00:17:17;;;;;;;47.67;18.17;;;;;;;1.53;nan;95993.94;4975732;28;20886;-39
2020/12/03 00:19:43;;;;;;;51.72;20.75;;;;;;;1.59;nan;95996.28;4975156;28;20218;-39
2020/12/03 00:22:12;;;;;;;54.20;19.45;;;;;;;1.57;nan;96004.94;4973542;28;20284;-39
2020/12/03 00:24:39;;;;;;;47.35;19.80;;;;;;;1.38;nan;95994.50;4975383;28;20225;-39
2020/12/03 00:27:07;;;;;;;46.50;19.10;;;;;;;1.43;nan;95999.47;4974595;28;20680;-40
2020/12/03 00:29:34;;;;;;;54.58;20.17;;;;;;;1.53;nan;96000.78;4975632;28;20236;-39
2020/12/03 00:32:01;;;;;;;46.50;19.00;;;;;;;1.51;nan;95992.31;4974644;28;20645;-39
2020/12/03 00:34:28;;;;;;;63.17;20.27;;;;;;;1.57;nan;95995.53;4975535;28;20309;-39
2020/12/03 00:36:55;;;;;;;55.38;21.65;;;;;;;1.66;nan;95990.03;4976030;28;20675;-39
2020/12/03 00:39:23;;;;;;;60.42;19.08;;;;;;;1.69;nan;95976.28;4975836;28;20655;-39
2020/12/03 00:41:53;;;;;;;51.90;20.55;;;;;;;1.62;nan;95980.78;4975955;28;20194;-39
2020/12/03 00:44:20;;;;;;;47.63;19.13;;;;;;;1.45;nan;95962.63;4975488;28;20609;-40
2020/12/03 00:46:48;;;;;;;58.35;21.17;;;;;;;1.38;nan;95974.00;4978230;28;20280;-39
2020/12/03 00:49:16;;;;;;;52.13;18.52;;;;;;;1.20;nan;95964.41;4977339;28;20226;-39
2020/12/03 00:51:42;;;;;;;55.50;20.40;;;;;;;1.17;nan;95969.66;4973589;28;20528;-39
2020/12/03 00:54:10;;;;;;;53.03;18.38;;;;;;;1.15;nan;95962.91;4973148;28;20222;-39
2020/12/03 00:56:38;;;;;;;44.25;19.83;;;;;;;1.12;nan;95956.16;4976087;28;20332;-39
2020/12/03 00:59:05;;;;;;;54.92;20.90;;;;;;;1.16;nan;95957.72;4974579;28;20965;-39
2020/12/03 01:01:34;;;;;;;51.25;21.10;;;;;;;1.22;nan;95949.81;4975708;28;20301;-39
2020/12/03 01:04:01;;;;;;;58.45;18.48;;;;;;;1.30;nan;95952.09;4975096;28;20560;-39
2020/12/03 01:06:28;;;;;;;58.97;20.27;;;;;;;1.19;nan;95949.91;4976074;28;20732;-39
2020/12/03 01:08:54;;;;;;;53.90;17.88;;;;;;;1.26;nan;95946.25;4975327;28;20316;-41
2020/12/03 01:11:22;;;;;;;55.35;19.15;;;;;;;1.33;nan;95950.25;4972742;28;20190;-39
2020/12/03 01:13:51;;;;;;;46.38;18.92;;;;;;;1.25;nan;95941.19;4975251;28;20647;-39
2020/12/03 01:16:19;;;;;;;57.50;20.38;;;;;;;1.28;nan;95952.19;4975997;28;20200;-40
2020/12/03 01:18:47;;;;;;;39.45;16.83;;;;;;;1.34;nan;95949.34;4974104;28;20752;-39
2020/12/03 01:21:18;;;;;;;43.25;18.35;;;;;;;1.31;nan;95949.47;4975988;28;20736;-39
2020/12/03 01:23:45;;;;;;;66.35;20.45;;;;;;;1.41;nan;95945.69;4973672;28;20341;-39
2020/12/03 01:26:15;;;;;;;56.55;19.33;;;;;;;1.42;nan;95934.53;4975794;28;20633;-39
2020/12/03 01:28:42;;;;;;;55.65;19.98;;;;;;;1.39;nan;95926.97;4971924;28;20226;-41
2020/12/03 01:31:11;;;;;;;47.28;19.63;;;;;;;1.42;nan;95931.97;4975476;28;20580;-39
2020/12/03 01:33:38;;;;;;;43.75;16.35;;;;;;;1.37;nan;95922.78;4975089;28;20372;-39
2020/12/03 01:36:05;;;;;;;46.00;18.55;;;;;;;1.39;nan;95921.84;4975658;28;20300;-39
2020/12/03 01:38:31;;;;;;;41.88;17.95;;;;;;;1.41;nan;95914.09;4975400;28;20691;-39
2020/12/03 01:40:58;;;;;;;44.55;18.33;;;;;;;1.33;nan;95911.81;4975207;28;20593;-39
2020/12/03 01:43:25;;;;;;;55.40;17.60;;;;;;;1.35;nan;95904.94;4977337;28;20991;-39
2020/12/03 01:45:58;;;;;;;42.15;17.23;;;;;;;1.42;nan;95901.22;4978613;28;20688;-41
2020/12/03 01:48:35;;;;;;;45.78;15.80;;;;;;;1.40;nan;95903.00;4976467;28;20249;-39
2020/12/03 01:51:05;;;;;;;43.97;18.05;;;;;;;1.45;nan;95895.97;4979344;28;20335;-39
2020/12/03 01:53:32;;;;;;;38.92;14.93;;;;;;;1.53;nan;95890.53;4978314;28;20699;-39
2020/12/03 01:56:05;;;;;;;46.08;16.52;;;;;;;1.49;nan;95886.44;4979006;28;20284;-39
2020/12/03 01:58:39;;;;;;;41.15;14.95;;;;;;;1.40;nan;95885.06;4978564;28;20320;-39
2020/12/03 02:01:07;;;;;;;44.15;17.10;;;;;;;1.32;nan;95887.09;4976705;28;20564;-39
2020/12/03 02:03:35;;;;;;;41.20;15.77;;;;;;;1.25;nan;95877.13;4978001;28;20321;-39
2020/12/03 02:06:01;;;;;;;36.78;15.40;;;;;;;1.13;nan;95877.59;4978772;28;20532;-39
2020/12/03 02:08:28;;;;;;;46.60;16.42;;;;;;;0.98;nan;95861.03;4978210;28;20841;-39
2020/12/03 02:10:55;;;;;;;37.63;15.63;;;;;;;0.97;nan;95871.34;4978419;28;20252;-39
2020/12/03 02:13:22;;;;;;;37.22;14.10;;;;;;;1.03;nan;95866.84;4975859;28;20732;-39
2020/12/03 02:15:49;;;;;;;34.72;15.02;;;;;;;1.16;nan;95857.81;4978550;28;20197;-39
2020/12/03 02:18:16;;;;;;;35.85;16.30;;;;;;;1.09;nan;95860.63;4975250;28;20313;-39
2020/12/03 02:20:43;;;;;;;48.25;17.08;;;;;;;1.01;nan;95860.94;4973679;28;20229;-39
2020/12/03 02:23:12;;;;;;;42.80;15.65;;;;;;;0.94;nan;95854.38;4975663;28;20628;-39
2020/12/03 02:25:39;;;;;;;41.08;16.48;;;;;;;0.84;nan;95850.50;4978664;28;20226;-39
2020/12/03 02:28:07;;;;;;;36.33;14.70;;;;;;;0.83;nan;95850.53;4977624;28;20245;-39
2020/12/03 02:30:34;;;;;;;36.63;15.70;;;;;;;0.86;nan;95848.69;4977912;28;20281;-39
2020/12/03 02:33:01;;;;;;;30.25;14.23;;;;;;;0.87;nan;95850.38;4977314;28;20653;-41
2020/12/03 02:35:28;;;;;;;39.45;13.90;;;;;;;0.92;nan;95843.34;4978841;28;20598;-39
2020/12/03 02:37:56;;;;;;;31.05;13.57;;;;;;;0.97;nan;95846.56;4977374;28;20276;-39
2020/12/03 02:40:23;;;;;;;37.47;14.90;;;;;;;1.01;nan;95845.56;4978516;28;20587;-39
2020/12/03 02:42:50;;;;;;;39.17;14.85;;;;;;;1.09;nan;95838.44;4977228;28;20663;-39
2020/12/03 02:45:17;;;;;;;33.70;13.60;;;;;;;1.15;nan;95842.47;4979305;28;20312;-39
2020/12/03 02:47:43;;;;;;;38.20;14.10;;;;;;;1.14;nan;95835.69;4975009;28;20260;-39
2020/12/03 02:50:10;;;;;;;33.92;14.18;;;;;;;1.17;nan;95840.69;4976182;28;20249;-39
2020/12/03 02:52:37;;;;;;;33.25;13.57;;;;;;;1.20;nan;95846.53;4979788;28;20661;-39
2020/12/03 02:55:05;;;;;;;39.70;16.52;;;;;;;1.28;nan;95841.97;4976564;28;20680;-39
2020/12/03 02:57:32;;;;;;;36.30;15.02;;;;;;;1.16;nan;95841.59;4977651;28;20580;-39
2020/12/03 02:59:58;;;;;;;40.83;16.67;;;;;;;1.15;nan;95835.66;4977468;28;20597;-39
2020/12/03 03:02:25;;;;;;;41.95;16.45;;;;;;;1.17;nan;95833.84;4979197;28;20677;-39
2020/12/03 03:04:52;;;;;;;42.88;17.27;;;;;;;1.27;nan;95840.28;4977007;28;20767;-39
2020/12/03 03:07:19;;;;;;;51.03;18.33;;;;;;;1.25;nan;95836.94;4976915;28;20609;-39
2020/12/03 03:09:46;;;;;;;46.28;17.33;;;;;;;1.22;nan;95831.09;4977023;28;20616;-39
2020/12/03 03:12:14;;;;;;;45.67;17.70;;;;;;;1.15;nan;95839.91;4974864;28;20657;-39
2020/12/03 03:14:41;;;;;;;41.25;15.68;;;;;;;1.07;nan;95829.13;4976527;28;20635;-39
2020/12/03 03:17:08;;;;;;;41.28;16.52;;;;;;;0.87;nan;95821.34;4976124;28;20701;-39
2020/12/03 03:19:34;;;;;;;42.60;16.35;;;;;;;0.72;nan;95819.34;4977110;28;20716;-39
2020/12/03 03:22:01;;;;;;;50.50;18.67;;;;;;;0.66;nan;95825.53;4976973;28;20884;-39
2020/12/03 03:24:28;;;;;;;48.90;18.23;;;;;;;0.69;nan;95822.03;4976901;28;20258;-39
2020/12/03 03:26:55;;;;;;;43.90;15.45;;;;;;;0.70;nan;95824.56;4976851;28;20692;-39
2020/12/03 03:29:23;;;;;;;43.47;17.40;;;;;;;0.71;nan;95822.81;4976516;28;20308;-39
2020/12/03 03:31:50;;;;;;;42.40;17.77;;;;;;;0.56;nan;95821.66;4976998;28;20284;-39
2020/12/03 03:34:17;;;;;;;45.83;17.25;;;;;;;0.58;nan;95812.19;4976583;28;20615;-38
2020/12/03 03:36:44;;;;;;;41.38;16.13;;;;;;;0.61;nan;95812.06;4973640;28;20198;-43
2020/12/03 03:39:18;;;;;;;50.47;18.92;;;;;;;0.64;nan;95817.09;4974419;28;20840;-37
2020/12/03 03:41:45;;;;;;;54.25;17.73;;;;;;;0.73;nan;95811.63;4974262;28;20228;-37
2020/12/03 03:44:12;;;;;;;34.67;14.98;;;;;;;0.68;nan;95803.28;4976277;28;20739;-37
2020/12/03 03:46:39;;;;;;;42.60;17.00;;;;;;;0.61;nan;95801.81;4976741;28;20317;-37
2020/12/03 03:49:06;;;;;;;42.40;15.57;;;;;;;0.65;nan;95803.41;4975965;28;20747;-37
2020/12/03 03:51:33;;;;;;;43.95;18.17;;;;;;;0.73;nan;95811.63;4977570;28;20308;-37
2020/12/03 03:54:00;;;;;;;44.72;17.35;;;;;;;0.65;nan;95805.94;4976162;28;20261;-37
2020/12/03 03:56:27;;;;;;;44.00;16.45;;;;;;;0.66;nan;95804.25;4976701;28;20281;-37
2020/12/03 03:58:54;;;;;;;35.17;13.95;;;;;;;0.54;nan;95800.38;4976854;28;20785;-38
2020/12/03 04:01:20;;;;;;;48.35;18.80;;;;;;;0.52;nan;95799.59;4977073;28;20583;-38
2020/12/03 04:03:48;;;;;;;44.38;15.63;;;;;;;0.59;nan;95798.50;4977607;28;20601;-37
2020/12/03 04:06:15;;;;;;;44.80;16.10;;;;;;;0.61;nan;95791.59;4978168;28;20221;-38
2020/12/03 04:08:43;;;;;;;38.10;13.20;;;;;;;0.67;nan;95793.94;4972874;28;20228;-37
2020/12/03 04:11:09;;;;;;;39.00;15.68;;;;;;;0.57;nan;95784.94;4974788;28;20512;-37
2020/12/03 04:13:37;;;;;;;45.40;16.75;;;;;;;0.60;nan;95789.91;4974974;28;20253;-37
2020/12/03 04:16:03;;;;;;;46.35;17.65;;;;;;;0.60;nan;95783.97;4976103;28;20229;-37
2020/12/03 04:18:30;;;;;;;42.80;16.92;;;;;;;0.63;nan;95792.38;4976144;28;20911;-37
2020/12/03 04:21:00;;;;;;;47.85;18.98;;;;;;;0.54;nan;95795.25;4976017;28;20301;-37
2020/12/03 04:23:27;;;;;;;36.67;14.25;;;;;;;0.48;nan;95779.31;4972540;28;20217;-37
2020/12/03 04:25:54;;;;;;;32.00;13.73;;;;;;;0.51;nan;95781.72;4976138;28;20293;-37
2020/12/03 04:28:21;;;;;;;36.92;14.65;;;;;;;0.48;nan;95779.31;4975235;28;20225;-37
2020/12/03 04:30:48;;;;;;;42.35;16.60;;;;;;;0.50;nan;95788.59;4976049;28;20297;-36
2020/12/03 04:33:15;;;;;;;34.88;14.00;;;;;;;0.50;nan;95780.06;4976197;28;20642;-37
2020/12/03 04:35:42;;;;;;;35.05;14.27;;;;;;;0.56;nan;95787.53;4976124;28;20544;-37
2020/12/03 04:38:11;;;;;;;32.95;13.10;;;;;;;0.55;nan;95776.47;4975195;28;20225;-37
2020/12/03 04:40:41;;;;;;;37.08;14.40;;;;;;;0.64;nan;95778.69;4975674;28;20731;-42
2020/12/03 04:43:19;;;;;;;46.15;15.60;;;;;;;0.68;nan;95776.84;4974869;28;20911;-38
2020/12/03 04:45:51;;;;;;;31.75;13.40;;;;;;;0.72;nan;95784.34;4974161;28;20540;-37
2020/12/03 04:48:35;;;;;;;39.88;14.30;;;;;;;0.77;nan;95773.94;4977368;28;20751;-37
2020/12/03 04:51:14;;;;;;;35.33;13.20;;;;;;;0.43;nan;95741.09;4975817;28;20757;-37
2020/12/03 04:53:57;;;;;;;40.58;13.73;;;;;;;0.65;nan;95771.81;4974983;28;20317;-37
2020/12/03 04:56:30;;;;;;;28.70;13.35;;;;;;;0.76;nan;95774.84;4975546;28;20190;-37
2020/12/03 04:59:10;;;;;;;24.80;11.70;;;;;;;0.81;nan;95784.00;4975201;28;20411;-37
2020/12/03 05:02:04;;;;;;;29.83;12.07;;;;;;;0.92;nan;95770.81;4974326;28;20244;-37
2020/12/03 05:04:40;;;;;;;33.33;13.32;;;;;;;0.97;nan;95764.59;4973553;28;20600;-37
2020/12/03 05:07:09;;;;;;;28.80;11.45;;;;;;;0.94;nan;95758.75;4975852;28;20601;-37
2020/12/03 05:09:41;;;;;;;25.25;12.07;;;;;;;0.90;nan;95755.47;4976927;28;20332;-37
2020/12/03 05:12:13;;;;;;;30.58;11.38;;;;;;;0.97;nan;95753.53;4975025;28;20200;-37
2020/12/03 05:14:49;;;;;;;20.27;8.32;;;;;;;1.01;nan;95749.94;4975141;28;20229;-37
2020/12/03 05:17:26;;;;;;;20.70;8.88;;;;;;;0.98;nan;95758.59;4974105;28;20666;-37
2020/12/03 05:20:14;;;;;;;16.15;6.85;;;;;;;0.97;nan;95754.34;4973986;28;20221;-37
2020/12/03 05:22:42;;;;;;;14.95;7.18;;;;;;;0.98;nan;95750.09;4979490;28;20224;-37
2020/12/03 05:25:15;;;;;;;13.05;6.43;;;;;;;0.98;nan;95752.66;4979289;28;20611;-37
2020/12/03 05:27:44;;;;;;;17.52;7.75;;;;;;;0.95;nan;95750.19;4979242;28;20245;-37
2020/12/03 05:30:11;;;;;;;13.55;6.30;;;;;;;0.93;nan;95741.72;4977407;28;20683;-37
2020/12/03 05:32:38;;;;;;;16.35;6.97;;;;;;;0.93;nan;95740.03;4978891;28;20260;-37
2020/12/03 05:35:06;;;;;;;16.92;7.45;;;;;;;0.94;nan;95733.16;4978059;28;20249;-37
2020/12/03 05:37:34;;;;;;;17.08;7.25;;;;;;;1.00;nan;95733.78;4980047;28;20593;-37
2020/12/03 05:40:01;;;;;;;15.40;7.47;;;;;;;1.05;nan;95729.28;4978895;28;20688;-37
2020/12/03 05:42:33;;;;;;;15.05;7.22;;;;;;;0.99;nan;95726.97;4979305;28;20233;-37
2020/12/03 05:45:08;;;;;;;14.73;7.25;;;;;;;0.90;nan;95719.63;4978812;28;20317;-41
2020/12/03 05:47:37;;;;;;;17.60;7.68;;;;;;;0.93;nan;95722.09;4978689;28;20308;-37
2020/12/03 05:50:08;;;;;;;22.98;12.82;;;;;;;0.92;nan;95720.44;4979186;28;20325;-37
2020/12/03 05:52:35;;;;;;;11.40;4.95;;;;;;;0.95;nan;95712.63;4981219;28;20226;-37
2020/12/03 05:55:05;;;;;;;10.65;5.25;;;;;;;0.93;nan;95708.44;4977697;28;20694;-37
2020/12/03 05:57:35;;;;;;;9.02;5.28;;;;;;;0.98;nan;95717.59;4978088;28;20221;-37
2020/12/03 06:00:15;;;;;;;10.73;5.30;;;;;;;0.99;nan;95714.19;4976290;28;20307;-37
2020/12/03 06:02:51;;;;;;;9.90;4.78;;;;;;;0.94;nan;95704.97;4978001;28;20245;-37
2020/12/03 06:05:22;;;;;;;9.15;4.28;;;;;;;0.97;nan;95692.88;4977861;28;20213;-37
2020/12/03 06:08:03;;;;;;;9.48;5.18;;;;;;;1.01;nan;95694.44;4977643;28;20678;-36
2020/12/03 06:10:40;;;;;;;9.30;4.40;;;;;;;1.01;nan;95699.56;4973949;28;20294;-37
2020/12/03 06:13:25;;;;;;;7.78;4.00;;;;;;;1.01;nan;95694.44;4977208;28;20249;-37
2020/12/03 06:15:59;;;;;;;7.70;3.95;;;;;;;1.07;nan;95683.97;4977227;28;20284;-37
2020/12/03 06:18:51;;;;;;;8.27;3.92;;;;;;;0.98;nan;95673.25;4976960;28;20639;-37
2020/12/03 06:21:32;;;;;;;8.57;4.30;;;;;;;1.01;nan;95684.19;4975411;28;20224;-38
2020/12/03 06:24:19;;;;;;;9.88;4.28;;;;;;;1.06;nan;95700.22;4977909;28;20233;-38
2020/12/03 06:27:05;;;;;;;8.23;3.90;;;;;;;0.98;nan;95686.88;4979067;28;20605;-37
2020/12/03 06:29:51;;;;;;;8.65;4.38;;;;;;;1.06;nan;95691.69;4976237;28;20696;-38
2020/12/03 06:32:52;;;;;;;11.70;5.40;;;;;;;1.07;nan;95689.09;4972234;28;20690;-38
2020/12/03 06:35:32;;;;;;;5.43;3.30;;;;;;;1.08;nan;95690.75;4976994;28;20220;-38
2020/12/03 06:38:09;;;;;;;8.40;4.00;;;;;;;1.12;nan;95691.47;4977596;28;20630;-38
2020/12/03 06:40:39;;;;;;;8.25;4.05;;;;;;;1.05;nan;95683.16;4977267;28;20283;-38
2020/12/03 06:43:12;;;;;;;9.25;4.55;;;;;;;1.10;nan;95683.81;4978020;28;20217;-37
2020/12/03 06:45:47;;;;;;;12.85;4.60;;;;;;;1.09;nan;95679.59;4978000;28;20257;-38
2020/12/03 06:48:46;;;;;;;10.38;5.82;;;;;;;1.07;nan;95678.00;4975940;28;20745;-38
2020/12/03 06:51:30;;;;;;;14.27;6.43;;;;;;;1.04;nan;95681.50;4952069;28;20202;-43
2020/12/03 06:54:12;;;;;;;13.77;6.90;;;;;;;1.07;nan;95678.00;4975985;28;20305;-42
2020/12/03 06:57:08;;;;;;;13.35;6.75;;;;;;;1.06;nan;95677.19;4977029;28;20592;-43
2020/12/03 06:59:48;;;;;;;14.55;7.25;;;;;;;0.99;nan;95682.59;4975262;28;20768;-43
2020/12/03 07:02:45;;;;;;;12.10;6.55;;;;;;;1.03;nan;95667.03;4976422;28;20563;-43
2020/12/03 07:05:34;;;;;;;14.07;6.28;;;;;;;1.02;nan;95670.50;4976284;28;20560;-43
2020/12/03 07:08:39;;;;;;;14.00;6.50;;;;;;;1.01;nan;95665.44;4976616;28;20313;-43
2020/12/03 07:11:45;;;;;;;13.23;7.45;;;;;;;1.02;nan;95670.50;4974420;28;20223;-43
2020/12/03 07:15:02;;;;;;;12.30;5.97;;;;;;;1.07;nan;95668.59;4967209;28;20316;-38
2020/12/03 07:18:14;;;;;;;10.68;5.68;;;;;;;1.06;nan;95660.97;4975332;28;20186;-37
2020/12/03 07:21:27;;;;;;;11.43;5.80;;;;;;;0.98;nan;95663.00;4978132;28;20252;-37
2020/12/03 07:24:00;;;;;;;11.40;5.93;;;;;;;1.03;nan;95651.66;4941831;28;20234;-38
2020/12/03 07:27:09;;;;;;;13.40;5.80;;;;;;;0.99;nan;95649.28;4975960;28;20225;-37
2020/12/03 07:29:51;;;;;;;16.13;5.93;;;;;;;0.97;nan;95646.78;4969149;28;20291;-37
2020/12/03 07:32:29;;;;;;;11.90;6.10;;;;;;;0.96;nan;95645.13;4975057;28;20528;-37
2020/12/03 07:35:05;;;;;;;8.75;5.28;;;;;;;1.00;nan;95651.81;4976641;28;20229;-37
2020/12/03 07:37:41;;;;;;;10.50;5.65;;;;;;;1.04;nan;95652.50;4975249;28;20602;-37
2020/12/03 07:40:09;;;;;;;8.25;4.97;;;;;;;1.04;nan;95642.28;4975976;28;20661;-38
2020/12/03 07:42:37;;;;;;;8.52;4.63;;;;;;;1.00;nan;95636.44;4975477;28;20724;-37
2020/12/03 07:45:25;;;;;;;11.85;5.45;;;;;;;1.03;nan;95640.59;4976744;28;20613;-42
2020/12/03 07:48:09;;;;;;;9.43;5.07;;;;;;;1.06;nan;95628.50;4976418;28;20237;-42
2020/12/03 07:51:06;;;;;;;7.22;4.00;;;;;;;1.05;nan;95629.38;4975964;28;20620;-42
2020/12/03 07:53:34;;;;;;;9.05;5.18;;;;;;;1.08;nan;95629.28;4975127;28;20617;-43
2020/12/03 07:56:36;;;;;;;10.32;4.95;;;;;;;1.10;nan;95624.09;4975774;28;20857;-43
2020/12/03 07:59:30;;;;;;;9.82;4.80;;;;;;;1.09;nan;95630.94;4977186;28;20884;-43
2020/12/03 08:01:58;;;;;;;11.13;4.40;;;;;;;1.12;nan;95627.41;4975197;28;20229;-43
2020/12/03 08:04:31;;;;;;;10.80;4.40;;;;;;;1.18;nan;95619.47;4973595;28;20712;-43
2020/12/03 08:07:23;;;;;;;9.05;4.50;;;;;;;1.17;nan;95612.66;4976655;28;20225;-43
2020/12/03 08:09:50;;;;;;;10.55;5.95;;;;;;;1.23;nan;95607.28;4973655;28;20648;-44
2020/12/03 08:12:18;;;;;;;21.13;9.85;;;;;;;1.36;nan;95604.16;4976061;28;20234;-47
2020/12/03 08:14:47;;;;;;;9.30;4.43;;;;;;;1.43;nan;95595.31;4973507;28;20221;-38
2020/12/03 08:17:35;;;;;;;5.60;3.80;;;;;;;1.44;nan;95591.84;4973748;28;20190;-42
2020/12/03 08:20:14;;;;;;;7.13;3.75;;;;;;;1.48;nan;95588.25;4975925;28;20724;-43
2020/12/03 08:22:44;;;;;;;3.67;2.40;;;;;;;1.56;nan;95591.31;4975948;28;20233;-43
2020/12/03 08:25:14;;;;;;;7.55;3.55;;;;;;;1.63;nan;95587.59;4975196;28;20595;-37
2020/12/03 08:27:42;;;;;;;5.55;3.38;;;;;;;1.69;nan;95587.31;4975736;28;20213;-38
2020/12/03 08:33:12;;;;;;;7.88;3.80;;;;;;;1.71;nan;95582.13;4953440;28;20641;-42
2020/12/03 08:35:40;;;;;;;7.40;3.35;;;;;;;1.85;nan;95587.47;4955558;28;20693;-43
2020/12/03 08:38:08;;;;;;;5.03;3.72;;;;;;;1.90;nan;95578.69;4954399;28;20268;-42
2020/12/03 08:40:38;;;;;;;5.57;3.40;;;;;;;1.83;nan;95574.72;4955747;28;20521;-42
2020/12/03 08:43:09;;;;;;;7.05;3.35;;;;;;;1.86;nan;95569.44;4954597;28;20257;-44
2020/12/03 08:45:48;;;;;;;7.60;4.43;;;;;;;1.86;nan;95563.50;4955564;28;20681;-43
2020/12/03 08:48:22;;;;;;;7.40;4.40;;;;;;;1.93;nan;95570.81;4953550;28;20312;-42
2020/12/03 08:50:55;;;;;;;5.65;2.70;;;;;;;1.99;nan;95562.03;4953195;28;20264;-43
2020/12/03 08:53:22;;;;;;;3.70;2.55;;;;;;;1.62;nan;95529.50;4955593;28;20750;-43
2020/12/03 08:55:49;;;;;;;5.18;2.97;;;;;;;1.74;nan;95553.78;4954498;28;20660;-42
2020/12/03 08:58:22;;;;;;;9.13;3.90;;;;;;;1.73;nan;95537.56;4953867;28;20246;-43
2020/12/03 09:00:53;;;;;;;5.45;3.60;;;;;;;1.87;nan;95539.50;4951064;28;20310;-43
2020/12/03 09:03:22;;;;;;;7.75;4.18;;;;;;;1.86;nan;95533.53;4954251;28;20700;-43
2020/12/03 09:05:51;;;;;;;9.07;4.68;;;;;;;1.75;nan;95529.78;4957783;28;20198;-43
2020/12/03 09:08:20;;;;;;;7.13;3.72;;;;;;;1.76;nan;95529.72;4954334;28;20246;-43
2020/12/03 09:10:50;;;;;;;6.13;3.63;;;;;;;1.78;nan;95520.22;4955324;28;20590;-43
2020/12/03 09:13:18;;;;;;;9.10;5.20;;;;;;;1.77;nan;95528.00;4954729;28;20262;-44
2020/12/03 09:15:47;;;;;;;8.57;3.90;;;;;;;1.80;nan;95521.00;4952330;28;20565;-43
2020/12/03 09:18:14;;;;;;;8.07;3.58;;;;;;;1.70;nan;95511.25;4953918;28;20272;-43
2020/12/03 09:20:43;;;;;;;12.15;6.20;;;;;;;1.73;nan;95529.88;4955256;28;20946;-42
2020/12/03 09:23:18;;;;;;;14.05;6.72;;;;;;;1.77;nan;95521.13;4955496;28;20685;-42
2020/12/03 09:25:45;;;;;;;12.02;6.47;;;;;;;1.78;nan;95519.41;4952165;28;20214;-43
2020/12/03 09:28:12;;;;;;;11.15;6.85;;;;;;;1.92;nan;95517.88;4952362;28;20230;-43
2020/12/03 09:30:42;;;;;;;16.45;7.88;;;;;;;1.87;nan;95504.44;4956640;28;20265;-45
2020/12/03 09:33:14;;;;;;;15.10;7.20;;;;;;;2.01;nan;95507.22;4915509;28;20543;-45
2020/12/03 09:35:43;;;;;;;11.68;6.65;;;;;;;1.97;nan;95512.53;4916435;29;20279;-45
2020/12/03 09:38:11;;;;;;;10.90;6.28;;;;;;;1.96;nan;95510.88;4914943;28;20286;-41
2020/12/03 09:40:43;;;;;;;15.55;6.95;;;;;;;1.99;nan;95511.56;4916856;28;20592;-39
2020/12/03 09:43:13;;;;;;;14.50;8.15;;;;;;;2.15;nan;95502.22;4915611;28;20615;-39
2020/12/03 09:45:42;;;;;;;18.35;8.25;;;;;;;2.39;nan;95492.53;4916023;28;20243;-39
2020/12/03 09:48:12;;;;;;;12.85;6.15;;;;;;;2.38;nan;95485.75;4914994;28;20668;-40
2020/12/03 09:50:45;;;;;;;14.02;7.28;;;;;;;2.52;nan;95489.31;4916994;28;20255;-44
2020/12/03 09:53:15;;;;;;;14.32;6.97;;;;;;;2.42;nan;95494.97;4914170;28;20909;-44
2020/12/03 09:55:43;;;;;;;13.57;6.45;;;;;;;2.28;nan;95485.34;4915679;28;20267;-45
2020/12/03 09:58:10;;;;;;;11.65;6.32;;;;;;;2.25;nan;95480.38;4915818;28;20302;-45
2020/12/03 10:00:39;;;;;;;20.17;7.70;;;;;;;2.21;nan;95481.41;4916368;28;20648;-45
2020/12/03 10:03:44;;;;;;;12.68;6.57;;;;;;;2.15;nan;95474.00;4915442;28;20552;-45
2020/12/03 10:06:23;;;;;;;12.88;6.55;;;;;;;2.10;nan;95455.44;4917594;28;20278;-44
2020/12/03 10:09:12;;;;;;;16.55;6.43;;;;;;;2.15;nan;95458.59;4917931;28;20234;-44
2020/12/03 10:12:28;;;;;;;12.05;6.45;;;;;;;2.28;nan;95457.13;4918650;29;20699;-45
2020/12/03 10:15:15;;;;;;;15.13;6.68;;;;;;;2.40;nan;95443.72;4876827;29;20229;-45
2020/12/03 10:18:07;;;;;;;14.55;6.05;;;;;;;2.44;nan;95442.63;4919293;29;20654;-46
2020/12/03 10:20:36;;;;;;;14.00;6.65;;;;;;;2.48;nan;95431.31;4920073;29;20636;-47
2020/12/03 10:23:36;;;;;;;9.40;5.95;;;;;;;2.53;nan;95434.50;4920427;28;20742;-47
2020/12/03 10:26:32;;;;;;;11.68;6.40;;;;;;;2.50;nan;95439.75;4905587;28;20204;-47
2020/12/03 10:29:14;;;;;;;11.75;6.65;;;;;;;2.48;nan;95421.03;4917658;28;20704;-42
2020/12/03 10:31:43;;;;;;;11.30;6.78;;;;;;;2.46;nan;95412.59;4935519;28;20615;-42
2020/12/03 10:34:12;;;;;;;8.95;5.95;;;;;;;2.40;nan;95412.91;4957075;28;20677;-42
2020/12/03 10:36:50;;;;;;;11.55;5.78;;;;;;;2.26;nan;95415.31;4956787;28;20661;-40
2020/12/03 10:39:18;;;;;;;12.77;6.80;;;;;;;2.16;nan;95426.09;4955505;28;20227;-42
2020/12/03 10:41:52;;;;;;;10.43;5.45;;;;;;;2.11;nan;95415.22;4954470;28;20579;-42
2020/12/03 10:44:21;;;;;;;11.25;5.68;;;;;;;2.13;nan;95419.38;4956122;28;20779;-42
2020/12/03 10:46:55;;;;;;;9.48;5.55;;;;;;;2.17;nan;95417.50;4957580;28;20329;-42
2020/12/03 10:49:25;;;;;;;14.70;6.25;;;;;;;2.16;nan;95414.09;4956898;28;20733;-42
2020/12/03 10:51:53;;;;;;;13.50;5.45;;;;;;;2.16;nan;95405.56;4956780;28;20236;-42
2020/12/03 10:54:23;;;;;;;10.85;5.38;;;;;;;2.10;nan;95409.25;4955641;28;20277;-40
2020/12/03 10:56:52;;;;;;;13.95;6.82;;;;;;;2.06;nan;95397.47;4956546;28;20206;-39
2020/12/03 10:59:38;;;;;;;13.65;7.18;;;;;;;2.10;nan;95399.00;4956357;28;20872;-42
2020/12/03 11:02:25;;;;;;;12.77;5.95;;;;;;;2.13;nan;95388.59;4956795;28;20206;-42
2020/12/03 11:04:53;;;;;;;10.30;5.43;;;;;;;2.07;nan;95376.03;4956720;28;20619;-47
2020/12/03 11:07:21;;;;;;;8.82;4.07;;;;;;;2.13;nan;95386.00;4956996;28;20657;-47
2020/12/03 11:09:54;;;;;;;8.88;5.13;;;;;;;2.14;nan;95379.97;4956383;28;20284;-47
2020/12/03 11:12:22;;;;;;;10.95;5.40;;;;;;;2.10;nan;95381.03;4956973;28;20955;-47
2020/12/03 11:14:50;;;;;;;11.15;5.57;;;;;;;2.13;nan;95368.06;4974481;23;20218;-42
2020/12/03 11:17:41;;;;;;;13.13;6.07;;;;;;;2.16;nan;95367.91;4985852;28;20682;-42
2020/12/03 11:20:31;;;;;;;11.13;6.10;;;;;;;2.25;nan;95364.88;4982971;28;20796;-42
2020/12/03 11:23:09;;;;;;;11.75;5.85;;;;;;;2.32;nan;95355.97;4986164;28;20712;-39
2020/12/03 11:25:37;;;;;;;12.85;6.38;;;;;;;2.38;nan;95357.41;4986358;28;20947;-40
2020/12/03 11:28:34;;;;;;;11.20;5.60;;;;;;;2.35;nan;95348.13;4984254;28;20210;-39
2020/12/03 11:31:05;;;;;;;14.27;7.18;;;;;;;2.47;nan;95332.09;4966668;28;20696;-40
2020/12/03 11:33:35;;;;;;;11.77;5.07;;;;;;;2.50;nan;95326.00;4985419;28;20263;-39
2020/12/03 11:36:11;;;;;;;12.75;6.00;;;;;;;2.54;nan;95312.91;4986400;28;20297;-45
2020/12/03 11:38:41;;;;;;;8.70;4.47;;;;;;;2.61;nan;95309.13;4986172;28;20276;-45
2020/12/03 11:41:14;;;;;;;9.90;4.95;;;;;;;2.78;nan;95308.25;4986026;28;20256;-48
2020/12/03 11:49:12;;;;;;;9.13;4.93;;;;;;;2.85;nan;95292.41;4984827;28;20331;-49
2020/12/03 11:52:10;;;;;;;10.52;5.55;;;;;;;2.84;nan;95282.22;4984017;28;20592;-50
2020/12/03 11:54:37;;;;;;;9.77;4.57;;;;;;;2.89;nan;95272.53;4982152;28;20209;-49
2020/12/03 11:57:05;;;;;;;11.15;5.50;;;;;;;2.97;nan;95260.94;4983977;28;20580;-44
2020/12/03 11:59:35;;;;;;;10.52;5.10;;;;;;;2.82;nan;95255.78;4983808;28;20893;-44
2020/12/03 12:02:05;;;;;;;7.28;4.80;;;;;;;2.72;nan;95250.28;4985325;28;20659;-44
2020/12/03 12:04:41;;;;;;;8.98;5.10;;;;;;;2.88;nan;95240.84;4984514;28;20753;-44
2020/12/03 12:07:14;;;;;;;7.47;4.63;;;;;;;2.80;nan;95237.88;4984334;28;20671;-44
2020/12/03 12:09:49;;;;;;;10.95;5.28;;;;;;;2.60;nan;95235.56;4986135;28;20237;-51
2020/12/03 12:12:19;;;;;;;9.90;4.88;;;;;;;2.70;nan;95243.59;4981678;28;20203;-50
2020/12/03 12:14:46;;;;;;;10.68;4.38;;;;;;;2.75;nan;95229.59;4979413;28;20624;-49
2020/12/03 12:17:13;;;;;;;9.70;5.20;;;;;;;2.89;nan;95237.41;4983620;28;20194;-49
2020/12/03 12:19:42;;;;;;;9.45;4.93;;;;;;;2.85;nan;95205.06;4982922;28;20764;-50
2020/12/03 12:22:11;;;;;;;8.90;5.35;;;;;;;3.01;nan;95234.16;4985234;28;20640;-50
2020/12/03 12:24:42;;;;;;;9.95;4.63;;;;;;;3.03;nan;95227.16;4981854;28;20236;-47